Página principal
METAR-TAF:

METAR-TAF

Aeroportos :

Aeroporto Internacional de Maputo

Maputo, Moçambique

latitude: 25-55S, longitude: 032-34E, altura: 39 m

Observação actual do tempo

O boletim foi feito há 1 hora e 53 minutos, às 23:00 UTC
Vento 3 kt de es-nordeste
Temperatura 23°C
Humidade 83%
Pressão 1015 hPa
Visibilidade 10 km ou mais
Nuvens dispersasa uma altura de 2500 ft

METAR: FQMA 152300Z 07003KT 9999 SCT025 23/20 Q1015 NOSIG

Hora: 02:53 (00:53 UTC)

Previsão

O boletim foi feito há 2 horas e 53 minutos, às 22:00 UTC
Previsão válida de 16 às 00 UTC a 17 às 06 UTC
Vento 6 kt de este
Visibilidade 10 km ou mais
Poucas nuvensa uma altura de 2500 ft
Tornando-se
de 16 às 06 UTC a 16 às 08 UTC
Vento 8 kt de nor-noroeste
Tornando-se
de 16 às 12 UTC a 16 às 14 UTC
Vento 12 kt de es-nordeste
Tornando-se
de 16 às 18 UTC a 16 às 20 UTC
Vento 8 kt de norte

TAF: FQMA 152200Z 1600/1706 08006KT 9999 FEW025 BECMG 1606/1608 34008KT BECMG 1612/1614 07012KT BECMG 1618/1620 01008KT TX34/1613Z TN19/1603Z

Observações e previsões do tempo de mais de 4000 aeroportos (mensagens METAR e TAF).

As estações disponíveis são os pontos amarelos e vermelhos sobre o mapa.

Mova o rato sobre o mapa para ver o nome da estação.

Depois clique no ponto para visualizar as observações e previsões meteorológicas.

Para alterar o mapa : clique nos botões verdes com uma cruz preta para aumentar o zoom; no botão verde com uma pitada de zoom; ou nas setas verdes para mapas adjacentes.


METAR-TAF: